Time;durP1;ratioP1;P1;durP2;ratioP2;P2;SDS_P1;SDS_P2;PMS_P1;PMS_P2;Temp;Humidity;BMP_temperature;BMP_pressure;BME280_temperature;BME280_humidity;BME280_pressure;Samples;Min_cycle;Max_cycle;Signal;HPM_P1;HPM_P2
2021/12/16 00:01:49;;;;;;;16.52;6.57;;;8.20;99.90;;;;;;5034931;28;20052;-79
2021/12/16 00:07:35;;;;;;;18.10;7.00;;;8.10;99.90;;;;;;5034567;28;20144;-79
2021/12/16 00:09:55;;;;;;;17.25;7.13;;;8.10;99.90;;;;;;5026513;28;20497;-79
2021/12/16 00:31:51;;;;;;;16.70;8.20;;;8.20;99.90;;;;;;5034075;28;20063;-78
2021/12/16 00:34:11;;;;;;;18.90;6.60;;;8.20;99.90;;;;;;5033534;28;20087;-79
2021/12/16 00:36:40;;;;;;;16.15;6.85;;;8.70;99.90;;;;;;5034115;28;20053;-78
2021/12/16 00:39:09;;;;;;;15.27;7.05;;;8.20;99.90;;;;;;5016435;28;20053;-79
2021/12/16 00:41:37;;;;;;;16.10;6.75;;;8.20;99.90;;;;;;5016269;28;20106;-79
2021/12/16 00:44:59;;;;;;;18.38;7.47;;;8.20;99.90;;;;;;5034080;28;20395;-76
2021/12/16 00:54:42;;;;;;;19.55;7.47;;;8.20;99.90;;;;;;5033948;28;20087;-77
2021/12/16 00:57:13;;;;;;;19.88;7.40;;;8.30;99.90;;;;;;5033797;28;20402;-77
2021/12/16 00:59:42;;;;;;;16.00;6.63;;;8.20;99.90;;;;;;5015711;28;20050;-79
2021/12/16 01:02:29;;;;;;;15.63;7.63;;;8.20;99.90;;;;;;5033572;28;20046;-79
2021/12/16 01:40:42;;;;;;;21.05;9.10;;;8.20;99.90;;;;;;5033463;28;20103;-76
2021/12/16 01:49:11;;;;;;;18.13;8.85;;;8.20;99.90;;;;;;5032858;28;20115;-79
2021/12/16 01:51:24;;;;;;;20.40;7.82;;;8.30;99.90;;;;;;5032364;28;20058;-76
2021/12/16 01:56:50;;;;;;;23.20;9.13;;;8.30;99.90;;;;;;5033098;28;20133;-75
2021/12/16 01:59:20;;;;;;;16.23;8.45;;;8.30;99.90;;;;;;5032917;28;20056;-79
2021/12/16 02:01:46;;;;;;;16.08;8.32;;;8.30;99.90;;;;;;5033226;28;20046;-76
2021/12/16 02:04:28;;;;;;;18.88;8.35;;;8.30;99.90;;;;;;5032466;28;20045;-79
2021/12/16 02:09:32;;;;;;;19.63;8.40;;;8.20;99.90;;;;;;5015612;28;20497;-79
2021/12/16 02:12:46;;;;;;;19.63;7.63;;;8.30;99.90;;;;;;5033108;28;20049;-78
2021/12/16 02:36:44;;;;;;;18.70;7.60;;;8.80;99.90;;;;;;4975237;28;20448;-78
2021/12/16 02:39:16;;;;;;;21.77;7.60;;;8.30;99.90;;;;;;4975454;28;20094;-77
2021/12/16 02:41:44;;;;;;;20.33;8.50;;;8.30;99.90;;;;;;4959242;28;20059;-76
2021/12/16 02:49:24;;;;;;;16.73;7.90;;;8.30;99.90;;;;;;4959080;28;20057;-79
2021/12/16 02:51:51;;;;;;;19.95;8.23;;;8.30;99.90;;;;;;4974661;28;20387;-76
2021/12/16 02:54:18;;;;;;;19.73;8.60;;;8.30;99.90;;;;;;4959065;28;20051;-79
2021/12/16 02:56:44;;;;;;;18.83;8.27;;;8.70;99.90;;;;;;4959031;28;20097;-76
2021/12/16 02:59:10;;;;;;;19.58;7.90;;;8.60;99.90;;;;;;4958461;28;20054;-79
2021/12/16 03:01:44;;;;;;;15.98;8.50;;;8.50;99.90;;;;;;4975236;28;20098;-79
2021/12/16 03:04:13;;;;;;;17.77;7.90;;;8.70;99.90;;;;;;4975114;28;20059;-78
2021/12/16 03:06:42;;;;;;;17.70;8.20;;;8.30;99.90;;;;;;4958324;28;20061;-79
2021/12/16 03:09:13;;;;;;;20.73;8.73;;;8.30;99.90;;;;;;4974939;28;20427;-79
2021/12/16 03:12:35;;;;;;;20.02;8.90;;;8.20;99.90;;;;;;5031000;28;20459;-79
2021/12/16 03:14:48;;;;;;;22.85;8.60;;;8.20;99.90;;;;;;5031816;28;20049;-79
2021/12/16 03:17:33;;;;;;;18.45;9.45;;;8.20;99.90;;;;;;5035914;28;20056;-79
2021/12/16 03:20:10;;;;;;;20.42;9.48;;;8.30;99.90;;;;;;5036024;28;20052;-78
2021/12/16 03:23:05;;;;;;;22.48;9.95;;;8.10;99.90;;;;;;5035147;28;20543;-78
2021/12/16 03:25:49;;;;;;;22.23;9.60;;;8.50;99.90;;;;;;5018031;28;20053;-79
2021/12/16 03:36:15;;;;;;;20.30;9.50;;;8.00;99.90;;;;;;5035660;28;20505;-75
2021/12/16 03:38:45;;;;;;;19.90;9.60;;;8.10;99.90;;;;;;5051775;23;20159;-79
2021/12/16 03:41:11;;;;;;;21.42;9.75;;;8.00;99.90;;;;;;5057021;28;20053;-79
2021/12/16 03:43:38;;;;;;;20.85;9.30;;;8.00;99.90;;;;;;5075184;28;20040;-79
2021/12/16 03:48:59;;;;;;;22.90;9.85;;;8.00;99.90;;;;;;5075190;28;20056;-78
2021/12/16 03:51:33;;;;;;;19.75;9.65;;;8.00;99.90;;;;;;5075073;28;20561;-77
2021/12/16 03:54:06;;;;;;;22.35;10.20;;;8.00;99.90;;;;;;5074579;28;20051;-79
2021/12/16 03:56:32;;;;;;;19.38;9.38;;;7.90;99.90;;;;;;5075052;28;20426;-77
2021/12/16 03:58:58;;;;;;;21.00;10.30;;;7.90;99.90;;;;;;5056739;28;20044;-79
2021/12/16 04:01:26;;;;;;;24.70;9.95;;;8.10;99.90;;;;;;5075111;28;20166;-78
2021/12/16 04:03:52;;;;;;;20.85;8.80;;;8.00;99.90;;;;;;5075011;28;20045;-79
2021/12/16 04:06:20;;;;;;;20.77;9.38;;;8.00;99.90;;;;;;5074974;28;20094;-79
2021/12/16 04:08:47;;;;;;;20.27;10.35;;;8.10;99.90;;;;;;5057140;28;20076;-77
2021/12/16 04:11:22;;;;;;;21.85;10.45;;;8.00;99.90;;;;;;5039860;28;20127;-78
2021/12/16 04:13:59;;;;;;;22.67;10.52;;;8.00;99.90;;;;;;5056747;28;20040;-79
2021/12/16 04:16:35;;;;;;;23.30;9.70;;;8.00;99.90;;;;;;5056635;28;20123;-77
2021/12/16 04:19:09;;;;;;;25.15;9.90;;;8.60;99.90;;;;;;5074550;28;20044;-78
2021/12/16 04:21:39;;;;;;;25.13;10.80;;;8.00;99.90;;;;;;5056559;28;20106;-79
2021/12/16 04:24:06;;;;;;;18.42;10.77;;;8.00;99.90;;;;;;5056580;28;20060;-79
2021/12/16 04:26:32;;;;;;;23.63;11.32;;;8.00;99.90;;;;;;5056089;28;20144;-78
2021/12/16 04:28:58;;;;;;;20.45;10.18;;;8.00;99.90;;;;;;5074286;28;20076;-79
2021/12/16 04:31:25;;;;;;;23.92;10.63;;;8.00;99.90;;;;;;5074418;28;20439;-78
2021/12/16 04:33:51;;;;;;;21.60;10.40;;;8.00;99.90;;;;;;5074511;28;20040;-79
2021/12/16 04:36:18;;;;;;;23.20;10.75;;;8.00;99.90;;;;;;5074501;28;20049;-79
2021/12/16 04:38:45;;;;;;;24.60;10.60;;;8.10;99.90;;;;;;5055980;28;20060;-77
2021/12/16 04:41:13;;;;;;;27.60;11.73;;;8.00;99.90;;;;;;5073879;28;20052;-78
2021/12/16 04:43:51;;;;;;;25.67;11.55;;;8.00;99.90;;;;;;5073771;28;20135;-79
2021/12/16 04:46:20;;;;;;;22.58;10.77;;;8.00;99.90;;;;;;5073966;28;20361;-79
2021/12/16 04:48:51;;;;;;;26.25;11.13;;;8.00;99.90;;;;;;5056403;28;20067;-78
2021/12/16 04:51:18;;;;;;;24.17;11.93;;;8.00;99.90;;;;;;5074237;28;20044;-77
2021/12/16 04:53:45;;;;;;;26.05;11.70;;;8.40;99.90;;;;;;5055426;28;20392;-76
2021/12/16 04:56:12;;;;;;;23.27;11.30;;;8.00;99.90;;;;;;5074164;28;20056;-77
2021/12/16 04:58:41;;;;;;;27.60;11.45;;;8.00;99.90;;;;;;5073578;28;20052;-79
2021/12/16 05:01:07;;;;;;;22.90;10.63;;;8.00;99.90;;;;;;5055877;28;20052;-79
2021/12/16 05:03:34;;;;;;;24.35;11.00;;;8.50;99.90;;;;;;5073940;28;20411;-80
2021/12/16 05:06:00;;;;;;;22.30;10.75;;;8.00;99.90;;;;;;5073846;28;20042;-78
2021/12/16 05:08:26;;;;;;;24.92;11.13;;;8.00;99.90;;;;;;5073840;28;20119;-79
2021/12/16 05:10:55;;;;;;;23.20;11.20;;;8.20;99.90;;;;;;5073558;28;20048;-76
2021/12/16 05:13:24;;;;;;;23.15;10.95;;;8.00;99.90;;;;;;5073144;28;20063;-77
2021/12/16 05:15:52;;;;;;;21.85;11.27;;;7.90;99.90;;;;;;5073653;28;20395;-79
2021/12/16 05:18:29;;;;;;;21.77;10.65;;;8.10;99.90;;;;;;5073670;28;20032;-77
2021/12/16 05:20:56;;;;;;;20.58;10.60;;;7.90;99.90;;;;;;5055286;28;20125;-78
2021/12/16 05:28:39;;;;;;;22.38;10.40;;;7.80;99.90;;;;;;5073314;28;20048;-79
2021/12/16 05:31:06;;;;;;;23.70;13.07;;;7.80;99.90;;;;;;5055031;28;20052;-78
2021/12/16 05:33:32;;;;;;;27.40;12.45;;;7.70;99.90;;;;;;5054737;28;20053;-79
2021/12/16 05:35:58;;;;;;;27.25;12.10;;;7.70;99.90;;;;;;5055289;28;20053;-79
2021/12/16 05:38:27;;;;;;;27.08;13.60;;;7.70;99.90;;;;;;5073188;28;20060;-76
2021/12/16 05:40:53;;;;;;;29.63;13.30;;;8.00;99.90;;;;;;5073130;28;20052;-78
2021/12/16 05:43:23;;;;;;;29.73;14.48;;;7.70;99.90;;;;;;5073448;28;20038;-78
2021/12/16 05:45:51;;;;;;;27.50;13.75;;;7.70;99.90;;;;;;5054760;28;20048;-79
2021/12/16 05:48:21;;;;;;;30.83;14.50;;;7.80;99.90;;;;;;5055090;28;20045;-78
2021/12/16 05:50:50;;;;;;;29.13;15.13;;;7.70;99.90;;;;;;5073091;28;20131;-77
2021/12/16 05:53:17;;;;;;;29.17;14.43;;;7.70;99.90;;;;;;5038538;28;20084;-78
2021/12/16 05:55:43;;;;;;;29.20;14.32;;;7.70;99.90;;;;;;5055297;28;20054;-76
2021/12/16 05:58:14;;;;;;;25.40;14.38;;;8.20;99.90;;;;;;5073565;28;20044;-78
2021/12/16 06:00:42;;;;;;;28.00;13.00;;;7.70;99.90;;;;;;5081705;23;20090;-78
2021/12/16 06:03:09;;;;;;;27.65;14.13;;;7.90;99.90;;;;;;5051882;28;20508;-79
2021/12/16 06:05:35;;;;;;;28.10;13.98;;;7.70;99.90;;;;;;5056421;28;20041;-78
2021/12/16 06:08:02;;;;;;;35.33;15.30;;;7.70;99.90;;;;;;5057272;28;20114;-77
2021/12/16 06:12:53;;;;;;;33.45;15.32;;;7.70;99.90;;;;;;5057094;28;20049;-78
2021/12/16 06:15:39;;;;;;;32.33;15.15;;;7.70;99.90;;;;;;5056937;28;20049;-78
2021/12/16 06:26:34;;;;;;;31.45;15.10;;;7.70;99.90;;;;;;4978665;28;20058;-78
2021/12/16 06:29:01;;;;;;;30.17;14.48;;;7.70;99.90;;;;;;4995262;28;20117;-78
2021/12/16 06:31:27;;;;;;;28.38;14.45;;;8.30;99.90;;;;;;4995161;28;20054;-78
2021/12/16 06:33:53;;;;;;;31.65;15.35;;;7.70;99.90;;;;;;4994437;28;20606;-79
2021/12/16 06:36:19;;;;;;;29.60;14.82;;;7.70;99.90;;;;;;4978701;28;20089;-77
2021/12/16 06:38:45;;;;;;;30.85;14.27;;;7.70;99.90;;;;;;4994803;28;20089;-77
2021/12/16 06:41:11;;;;;;;29.17;15.18;;;7.70;99.90;;;;;;4994938;28;20446;-77
2021/12/16 06:43:37;;;;;;;29.60;14.93;;;7.70;99.90;;;;;;4994859;28;20050;-78
2021/12/16 06:46:07;;;;;;;26.45;13.77;;;7.80;99.90;;;;;;4994792;28;20097;-76
2021/12/16 06:48:36;;;;;;;27.30;14.63;;;7.60;99.90;;;;;;4994255;28;20082;-78
2021/12/16 06:51:08;;;;;;;26.98;14.50;;;7.60;99.90;;;;;;4994796;28;20066;-78
2021/12/16 06:54:01;;;;;;;30.17;13.95;;;7.70;99.90;;;;;;4994583;28;20121;-78
2021/12/16 06:56:35;;;;;;;26.48;14.48;;;7.50;99.90;;;;;;4978751;28;20398;-78
2021/12/16 06:59:06;;;;;;;27.42;14.40;;;7.50;99.90;;;;;;5056112;28;20160;-75
2021/12/16 07:04:05;;;;;;;30.55;13.95;;;7.50;99.90;;;;;;5037672;28;20103;-78
2021/12/16 07:06:32;;;;;;;30.33;14.45;;;7.40;99.90;;;;;;5055863;28;20076;-78
2021/12/16 07:09:11;;;;;;;26.25;13.13;;;7.40;99.90;;;;;;5037895;28;20061;-78
2021/12/16 07:11:41;;;;;;;25.05;13.07;;;7.40;99.90;;;;;;5056096;28;20049;-78
2021/12/16 07:14:12;;;;;;;26.10;12.65;;;7.40;99.90;;;;;;5037473;28;20496;-77
2021/12/16 07:16:39;;;;;;;26.27;12.67;;;7.40;99.90;;;;;;5054712;28;20435;-77
2021/12/16 07:19:05;;;;;;;29.35;12.70;;;7.40;99.90;;;;;;5037522;28;20087;-79
2021/12/16 07:21:37;;;;;;;23.95;10.70;;;7.30;99.90;;;;;;5037143;28;20057;-76
2021/12/16 07:24:07;;;;;;;23.02;9.93;;;7.30;99.90;;;;;;5050718;28;20049;-79
2021/12/16 07:26:33;;;;;;;23.85;10.65;;;7.30;99.90;;;;;;5036731;28;20041;-75
2021/12/16 07:28:59;;;;;;;21.92;11.10;;;7.30;99.90;;;;;;5047920;28;20543;-75
2021/12/16 07:31:27;;;;;;;25.63;11.30;;;7.50;99.90;;;;;;5057992;28;20045;-75
2021/12/16 07:33:53;;;;;;;29.63;11.15;;;7.30;99.90;;;;;;5048660;28;20401;-75
2021/12/16 07:36:19;;;;;;;26.75;11.15;;;7.70;99.90;;;;;;5052605;28;20057;-76
2021/12/16 07:38:45;;;;;;;29.17;12.07;;;7.40;99.90;;;;;;5054987;28;20066;-75
2021/12/16 07:41:12;;;;;;;22.02;10.32;;;7.50;99.90;;;;;;5037332;28;20132;-75
2021/12/16 07:46:04;;;;;;;25.63;12.13;;;7.80;99.90;;;;;;5037457;28;20370;-74
2021/12/16 07:48:30;;;;;;;19.95;9.40;;;7.60;99.90;;;;;;5054978;28;20044;-77
2021/12/16 07:51:06;;;;;;;20.23;9.60;;;8.00;99.90;;;;;;5055219;28;20053;-76
2021/12/16 07:53:34;;;;;;;18.60;9.82;;;8.20;99.90;;;;;;5054667;28;20116;-75
2021/12/16 07:56:00;;;;;;;17.23;7.88;;;8.00;99.90;;;;;;5020528;28;20124;-75
2021/12/16 07:58:26;;;;;;;23.50;10.32;;;8.40;99.90;;;;;;5055075;28;20036;-76
2021/12/16 08:00:53;;;;;;;24.77;10.90;;;7.70;99.90;;;;;;5054606;28;20552;-74
2021/12/16 08:03:20;;;;;;;23.73;11.75;;;7.80;99.90;;;;;;5020264;28;20136;-76
2021/12/16 08:05:54;;;;;;;19.48;9.88;;;7.60;99.90;;;;;;5054565;28;20041;-75
2021/12/16 08:08:22;;;;;;;20.15;9.82;;;7.60;99.90;;;;;;5054500;28;20049;-75
2021/12/16 08:10:49;;;;;;;24.80;10.60;;;7.70;99.90;;;;;;5044162;28;20034;-75
2021/12/16 08:13:14;;;;;;;22.70;10.77;;;8.00;99.90;;;;;;5032685;28;20603;-75
2021/12/16 08:15:41;;;;;;;22.90;11.00;;;8.10;99.90;;;;;;5038343;28;20053;-78
2021/12/16 08:18:07;;;;;;;24.88;12.05;;;7.80;99.90;;;;;;5053269;28;20404;-78
2021/12/16 08:20:33;;;;;;;24.20;11.50;;;7.80;99.90;;;;;;5035365;28;20055;-80
2021/12/16 08:22:59;;;;;;;22.23;11.45;;;7.80;99.90;;;;;;5052326;28;20041;-80
2021/12/16 08:25:28;;;;;;;28.55;11.63;;;7.80;99.90;;;;;;5035103;28;20053;-78
2021/12/16 08:27:56;;;;;;;27.20;12.13;;;7.90;99.90;;;;;;5034934;28;20404;-78
2021/12/16 08:30:25;;;;;;;22.70;11.65;;;7.90;99.90;;;;;;5052548;28;20450;-79
2021/12/16 08:32:52;;;;;;;26.48;10.05;;;8.60;99.90;;;;;;5041352;28;20045;-76
2021/12/16 08:35:18;;;;;;;23.35;9.77;;;7.80;99.90;;;;;;5033290;28;20409;-76
2021/12/16 08:37:45;;;;;;;24.48;9.90;;;8.50;99.90;;;;;;5032604;28;20052;-76
2021/12/16 08:40:18;;;;;;;20.98;11.00;;;7.90;99.90;;;;;;5033208;28;20040;-75
2021/12/16 08:42:46;;;;;;;30.98;11.77;;;7.80;99.90;;;;;;5014298;28;20485;-75
2021/12/16 08:45:16;;;;;;;26.50;12.40;;;7.90;99.90;;;;;;4997397;28;20531;-74
2021/12/16 08:47:42;;;;;;;24.65;11.95;;;7.90;99.90;;;;;;5032971;28;20049;-77
2021/12/16 08:50:10;;;;;;;22.83;10.70;;;7.90;99.90;;;;;;5014715;28;20054;-78
2021/12/16 08:52:36;;;;;;;23.08;9.85;;;8.00;99.90;;;;;;5032288;28;20103;-75
2021/12/16 08:55:03;;;;;;;21.02;9.50;;;8.00;99.90;;;;;;5031947;28;20489;-74
2021/12/16 08:57:29;;;;;;;17.30;9.00;;;8.00;99.90;;;;;;5032608;28;20049;-76
2021/12/16 08:59:56;;;;;;;22.58;10.65;;;8.00;99.90;;;;;;5031959;28;20440;-79
2021/12/16 09:02:22;;;;;;;23.67;10.40;;;8.10;99.90;;;;;;5031672;28;20092;-81
2021/12/16 09:04:49;;;;;;;22.75;10.20;;;8.00;99.90;;;;;;5031959;28;20045;-79
2021/12/16 09:07:15;;;;;;;25.35;10.43;;;8.40;99.90;;;;;;5014603;28;20080;-78
2021/12/16 09:09:43;;;;;;;24.90;10.80;;;8.00;99.90;;;;;;5014883;28;20057;-76
2021/12/16 09:12:36;;;;;;;20.38;9.50;;;8.10;99.90;;;;;;5038167;28;20064;-76
2021/12/16 09:15:05;;;;;;;29.05;12.80;;;8.10;99.90;;;;;;5027606;28;20041;-74
2021/12/16 09:17:31;;;;;;;26.00;11.70;;;8.10;99.90;;;;;;5044587;28;20060;-75
2021/12/16 09:19:57;;;;;;;24.13;12.02;;;8.10;99.90;;;;;;5044455;28;20131;-77
2021/12/16 09:22:25;;;;;;;25.85;11.77;;;8.50;99.90;;;;;;5032676;28;20426;-78
2021/12/16 09:24:52;;;;;;;27.83;10.95;;;8.10;99.90;;;;;;5033952;28;20072;-77
2021/12/16 09:27:18;;;;;;;26.38;12.27;;;8.00;99.90;;;;;;5051071;28;20160;-77
2021/12/16 09:29:46;;;;;;;26.30;11.25;;;8.10;99.90;;;;;;5034100;28;20087;-73
2021/12/16 09:32:12;;;;;;;26.70;11.52;;;8.10;99.90;;;;;;5033344;28;20110;-75
2021/12/16 09:34:40;;;;;;;29.23;8.93;;;8.10;99.90;;;;;;5033499;28;20500;-77
2021/12/16 09:37:06;;;;;;;25.25;11.98;;;8.00;99.90;;;;;;5033956;28;20068;-76
2021/12/16 09:39:33;;;;;;;24.35;11.48;;;8.10;99.90;;;;;;5050790;28;20044;-76
2021/12/16 09:42:00;;;;;;;23.80;8.85;;;8.30;99.90;;;;;;5050943;28;20049;-76
2021/12/16 09:44:29;;;;;;;27.10;11.25;;;8.40;99.90;;;;;;5033091;28;20143;-76
2021/12/16 09:46:57;;;;;;;32.65;12.05;;;8.50;99.90;;;;;;5051273;28;20103;-77
2021/12/16 09:49:23;;;;;;;26.85;12.40;;;8.20;99.90;;;;;;5051291;28;20076;-76
2021/12/16 09:51:51;;;;;;;26.52;10.35;;;8.20;99.90;;;;;;5051111;28;20110;-75
2021/12/16 09:54:23;;;;;;;28.05;11.50;;;8.30;99.90;;;;;;5051046;28;20076;-77
2021/12/16 09:56:51;;;;;;;32.55;11.27;;;8.40;99.90;;;;;;5051116;28;20127;-74
2021/12/16 09:59:20;;;;;;;27.40;10.85;;;8.30;99.90;;;;;;5033064;28;20068;-80
2021/12/16 10:01:49;;;;;;;28.25;13.10;;;8.70;99.90;;;;;;5049200;28;20065;-72
2021/12/16 10:04:19;;;;;;;24.52;9.07;;;8.40;99.90;;;;;;5051004;28;20056;-75
2021/12/16 10:06:49;;;;;;;30.45;10.43;;;8.80;99.90;;;;;;5050881;28;20060;-74
2021/12/16 10:09:15;;;;;;;32.65;10.95;;;8.40;99.90;;;;;;5033098;28;20127;-79
2021/12/16 10:11:45;;;;;;;27.30;11.63;;;8.50;99.90;;;;;;5050810;28;20124;-77
2021/12/16 10:19:23;;;;;;;34.60;12.80;;;8.50;99.90;;;;;;5051353;28;20047;-76
2021/12/16 10:21:50;;;;;;;34.83;12.80;;;8.80;99.90;;;;;;5032766;28;20127;-74
2021/12/16 10:24:29;;;;;;;32.03;13.90;;;8.50;99.90;;;;;;5051183;28;20041;-77
2021/12/16 10:27:26;;;;;;;35.53;14.50;;;8.50;99.90;;;;;;5050863;28;20071;-77
2021/12/16 10:29:56;;;;;;;30.08;12.43;;;9.00;99.90;;;;;;4989017;28;20823;-77
2021/12/16 10:32:34;;;;;;;33.25;12.82;;;8.70;99.90;;;;;;4989190;28;20126;-77
2021/12/16 10:35:02;;;;;;;32.03;11.57;;;8.60;99.90;;;;;;4972571;28;20097;-79
2021/12/16 10:37:30;;;;;;;39.97;11.68;;;8.80;99.90;;;;;;4973456;28;20050;-77
2021/12/16 10:40:24;;;;;;;26.73;11.70;;;8.60;99.90;;;;;;4989123;28;20054;-77
2021/12/16 10:42:50;;;;;;;35.90;11.93;;;8.60;99.90;;;;;;4989138;28;20042;-75
2021/12/16 10:45:36;;;;;;;33.35;10.70;;;8.60;99.90;;;;;;4988698;28;20146;-76
2021/12/16 10:48:22;;;;;;;22.75;9.60;;;8.60;99.90;;;;;;4989253;28;20137;-79
2021/12/16 10:50:49;;;;;;;34.38;11.43;;;8.60;99.90;;;;;;4989085;28;20055;-79
2021/12/16 10:53:17;;;;;;;37.22;12.18;;;8.60;99.90;;;;;;4977013;28;20057;-78
2021/12/16 10:55:59;;;;;;;40.75;13.05;;;8.70;99.90;;;;;;4976208;28;20053;-78
2021/12/16 10:58:43;;;;;;;;;;;8.70;99.90;;;;;;4977521;28;20187;-77
2021/12/16 11:01:34;;;;;;;31.10;8.95;;;8.60;99.90;;;;;;4991977;28;19925;-78
2021/12/16 11:04:02;;;;;;;29.10;10.27;;;8.70;99.90;;;;;;4992237;28;20065;-77
2021/12/16 11:06:30;;;;;;;31.20;12.23;;;9.20;99.90;;;;;;5012194;28;20146;-77
2021/12/16 11:09:24;;;;;;;37.35;12.15;;;9.10;99.90;;;;;;5054286;28;20539;-73
2021/12/16 11:12:06;;;;;;;22.30;8.43;;;8.70;99.90;;;;;;5053632;28;20500;-77
2021/12/16 11:14:31;;;;;;;33.50;10.63;;;8.70;99.90;;;;;;5036121;28;20047;-77
2021/12/16 11:16:59;;;;;;;34.92;12.25;;;8.70;99.90;;;;;;5053360;28;20072;-77
2021/12/16 11:19:46;;;;;;;29.17;11.80;;;8.70;99.90;;;;;;5054259;28;20040;-74
2021/12/16 11:22:15;;;;;;;37.17;11.73;;;9.10;99.90;;;;;;5053746;28;20130;-73
2021/12/16 11:24:41;;;;;;;32.45;11.95;;;9.00;99.90;;;;;;5053738;28;20052;-73
2021/12/16 11:27:23;;;;;;;30.70;12.30;;;8.70;99.90;;;;;;5053570;28;20044;-75
2021/12/16 11:29:49;;;;;;;;;;;8.70;99.90;;;;;;5036378;28;20438;-76
2021/12/16 11:32:44;;;;;;;35.72;11.73;;;8.70;99.90;;;;;;5053732;28;20023;-74
2021/12/16 11:35:38;;;;;;;43.50;13.85;;;8.70;99.90;;;;;;5053283;28;20041;-74
2021/12/16 11:38:18;;;;;;;38.25;14.32;;;8.70;99.90;;;;;;5053543;28;20096;-74
2021/12/16 11:40:55;;;;;;;46.47;14.02;;;9.10;99.90;;;;;;5053604;28;20045;-76
2021/12/16 11:43:46;;;;;;;36.13;13.02;;;8.70;99.90;;;;;;5053832;28;20040;-75
2021/12/16 11:46:20;;;;;;;47.75;16.23;;;8.70;99.90;;;;;;5044711;28;20132;-74
2021/12/16 11:48:47;;;;;;;34.05;14.25;;;8.70;99.90;;;;;;5053290;28;20132;-74
2021/12/16 11:51:15;;;;;;;35.03;12.77;;;8.80;99.90;;;;;;5035080;28;20077;-75
2021/12/16 11:53:55;;;;;;;33.88;13.68;;;8.80;99.90;;;;;;5053388;28;20048;-75
2021/12/16 11:56:49;;;;;;;41.72;16.33;;;8.70;99.90;;;;;;5052779;28;20048;-73
2021/12/16 11:59:54;;;;;;;35.30;12.98;;;8.70;99.90;;;;;;5053684;28;20033;-76
2021/12/16 12:02:34;;;;;;;34.35;13.60;;;8.70;99.90;;;;;;5034626;28;20128;-75
2021/12/16 12:05:21;;;;;;;35.65;13.57;;;8.80;99.90;;;;;;5034116;28;20540;-75
2021/12/16 12:07:52;;;;;;;51.50;14.98;;;8.70;99.90;;;;;;5052858;28;20078;-73
2021/12/16 12:10:35;;;;;;;39.85;14.50;;;8.80;99.90;;;;;;5053402;28;20048;-74
2021/12/16 12:13:06;;;;;;;33.53;13.43;;;8.80;99.90;;;;;;5052502;28;20510;-72
2021/12/16 12:15:51;;;;;;;28.40;12.23;;;8.80;99.90;;;;;;5035262;28;20396;-73
2021/12/16 12:18:40;;;;;;;40.15;13.18;;;8.80;99.90;;;;;;5052867;28;20045;-75
2021/12/16 12:21:39;;;;;;;37.30;14.35;;;8.80;99.90;;;;;;5052415;28;20049;-75
2021/12/16 12:24:07;;;;;;;41.55;14.65;;;8.80;99.90;;;;;;4974627;28;20058;-75
2021/12/16 12:26:40;;;;;;;31.85;13.07;;;8.80;99.90;;;;;;4990945;28;20140;-75
2021/12/16 12:29:18;;;;;;;32.17;13.73;;;8.70;99.90;;;;;;4990680;28;20070;-74
2021/12/16 12:31:50;;;;;;;34.90;13.50;;;8.70;99.90;;;;;;4991047;28;20092;-74
2021/12/16 12:34:17;;;;;;;33.60;13.55;;;8.70;99.90;;;;;;4976011;28;20482;-72
2021/12/16 12:36:44;;;;;;;27.77;13.13;;;8.70;99.90;;;;;;4992233;28;20537;-75
2021/12/16 12:39:15;;;;;;;32.15;14.23;;;8.70;99.90;;;;;;4992762;28;20496;-75
2021/12/16 12:41:42;;;;;;;29.90;13.55;;;8.70;99.90;;;;;;4992209;28;20379;-75
2021/12/16 12:44:08;;;;;;;32.83;14.00;;;8.70;99.90;;;;;;4979757;28;20047;-74
2021/12/16 12:46:38;;;;;;;34.85;15.65;;;8.70;99.90;;;;;;4983698;28;20069;-73
2021/12/16 12:49:07;;;;;;;31.75;14.02;;;8.70;99.90;;;;;;4982440;28;20546;-75
2021/12/16 12:51:42;;;;;;;31.33;13.05;;;8.70;99.90;;;;;;4984583;28;20042;-76
2021/12/16 12:54:26;;;;;;;35.35;15.20;;;8.70;99.90;;;;;;4978691;28;20059;-75
2021/12/16 12:56:55;;;;;;;32.17;13.98;;;8.70;99.90;;;;;;4984419;28;20117;-74
2021/12/16 12:59:33;;;;;;;31.70;13.63;;;8.70;99.90;;;;;;4987589;28;20054;-76
2021/12/16 13:02:11;;;;;;;31.55;14.93;;;8.70;99.90;;;;;;5039190;28;20059;-77
2021/12/16 13:04:48;;;;;;;30.80;13.85;;;8.70;99.90;;;;;;5033832;28;20045;-80
2021/12/16 13:07:15;;;;;;;34.63;14.68;;;8.70;99.90;;;;;;5033824;28;20099;-79
2021/12/16 13:09:43;;;;;;;35.67;14.45;;;8.70;99.90;;;;;;5033625;28;20528;-81
2021/12/16 13:12:56;;;;;;;33.92;15.20;;;8.70;99.90;;;;;;5033456;28;20055;-80
2021/12/16 13:26:44;;;;;;;43.78;16.88;;;9.40;99.90;;;;;;4954573;28;20066;-77
2021/12/16 13:29:21;;;;;;;;;;;8.70;99.90;;;;;;4950268;28;20058;-80
2021/12/16 13:35:00;;;;;;;36.88;15.02;;;8.70;99.90;;;;;;4953972;28;20050;-79
2021/12/16 13:37:45;;;;;;;36.60;16.58;;;8.70;99.90;;;;;;4970529;28;20047;-79
2021/12/16 13:40:17;;;;;;;41.97;17.58;;;8.70;99.90;;;;;;4951788;28;20086;-78
2021/12/16 13:42:53;;;;;;;41.20;15.73;;;8.70;99.90;;;;;;4969574;28;20106;-78
2021/12/16 13:45:32;;;;;;;39.83;16.25;;;8.80;99.90;;;;;;4951301;28;20415;-80
2021/12/16 13:48:27;;;;;;;36.65;17.05;;;9.00;99.90;;;;;;4931896;28;20063;-74
2021/12/16 14:02:50;;;;;;;32.25;14.18;;;8.80;99.90;;;;;;5021544;28;20056;-78
2021/12/16 14:05:32;;;;;;;32.80;15.38;;;8.80;99.90;;;;;;5043268;28;20077;-76
2021/12/16 14:08:02;;;;;;;35.92;15.32;;;8.80;99.90;;;;;;5020447;28;20049;-75
2021/12/16 14:10:58;;;;;;;30.35;14.13;;;8.80;99.90;;;;;;5013544;28;20049;-74
2021/12/16 14:31:25;;;;;;;29.45;13.68;;;9.50;99.90;;;;;;4980428;28;20045;-76
2021/12/16 14:42:15;;;;;;;38.13;14.50;;;8.80;99.90;;;;;;4991473;28;20074;-75
2021/12/16 14:48:06;;;;;;;27.80;12.73;;;10.20;99.90;;;;;;4996712;28;20058;-75
2021/12/16 14:50:53;;;;;;;39.08;15.18;;;8.80;99.90;;;;;;4972709;28;20130;-74
2021/12/16 14:53:29;;;;;;;33.60;14.13;;;8.80;99.90;;;;;;4996815;28;20104;-77
2021/12/16 14:56:06;;;;;;;30.98;13.82;;;9.00;99.90;;;;;;4998966;28;20532;-79
2021/12/16 14:58:33;;;;;;;30.38;13.45;;;8.80;99.90;;;;;;4998588;28;20113;-77
2021/12/16 15:01:10;;;;;;;33.55;14.88;;;9.40;99.90;;;;;;4981090;28;20129;-77
2021/12/16 15:03:40;;;;;;;32.35;13.00;;;9.50;99.90;;;;;;4994556;28;20062;-77
2021/12/16 15:06:15;;;;;;;30.23;12.80;;;9.40;99.90;;;;;;5039998;28;20049;-79
2021/12/16 15:08:58;;;;;;;36.95;12.70;;;8.70;99.90;;;;;;5014474;28;20057;-76
2021/12/16 15:11:42;;;;;;;26.55;10.95;;;8.70;99.90;;;;;;5040445;28;20412;-78
2021/12/16 15:14:26;;;;;;;36.55;14.35;;;8.80;99.90;;;;;;5033319;28;20053;-77
2021/12/16 15:39:43;;;;;;;36.58;15.75;;;8.70;99.90;;;;;;5020549;28;20060;-76
2021/12/16 15:45:12;;;;;;;40.60;18.67;;;8.70;99.90;;;;;;5041698;28;20128;-75
2021/12/16 15:47:44;;;;;;;37.85;17.52;;;9.00;99.90;;;;;;5055190;22;20097;-74
2021/12/16 15:50:13;;;;;;;31.60;16.67;;;8.90;99.90;;;;;;5071823;28;20049;-75
2021/12/16 15:52:45;;;;;;;36.42;17.05;;;8.70;99.90;;;;;;5070143;28;20037;-76
2021/12/16 15:55:25;;;;;;;34.78;16.65;;;9.30;99.90;;;;;;5052672;28;20055;-75
2021/12/16 15:57:51;;;;;;;32.58;15.82;;;8.70;99.90;;;;;;5061836;28;20503;-77
2021/12/16 16:00:20;;;;;;;53.25;22.83;;;8.70;99.90;;;;;;5050525;28;20053;-75
2021/12/16 16:02:46;;;;;;;46.58;23.33;;;8.70;99.90;;;;;;5046719;28;20144;-77
2021/12/16 16:05:13;;;;;;;46.72;21.38;;;8.80;99.90;;;;;;5063951;28;20127;-76
2021/12/16 16:07:40;;;;;;;45.17;22.35;;;8.70;99.90;;;;;;5068259;28;20040;-74
2021/12/16 16:10:09;;;;;;;45.40;21.20;;;8.70;99.90;;;;;;5051545;28;20629;-78
2021/12/16 16:12:35;;;;;;;37.83;18.48;;;8.70;99.90;;;;;;5068385;28;20044;-77
2021/12/16 16:15:22;;;;;;;39.92;18.45;;;9.30;99.90;;;;;;5037069;28;20045;-78
2021/12/16 16:18:11;;;;;;;41.90;19.52;;;8.80;99.90;;;;;;5064181;28;20060;-76
2021/12/16 16:20:38;;;;;;;47.33;19.33;;;9.60;99.90;;;;;;5048803;28;20583;-76
2021/12/16 16:23:11;;;;;;;43.97;20.00;;;8.80;99.90;;;;;;5071608;28;20048;-80
2021/12/16 16:25:37;;;;;;;43.55;17.17;;;9.90;99.90;;;;;;5066903;28;20079;-81
2021/12/16 16:28:05;;;;;;;43.05;18.55;;;8.80;99.90;;;;;;5050273;28;20131;-79
2021/12/16 16:30:32;;;;;;;46.28;19.75;;;8.80;99.90;;;;;;5066751;28;20067;-76
2021/12/16 16:33:15;;;;;;;45.80;20.15;;;9.30;99.90;;;;;;5053137;28;20044;-75
2021/12/16 16:36:01;;;;;;;;;;;8.30;99.90;;;;;;5060607;28;20353;-73
2021/12/16 16:38:36;;;;;;;65.20;24.35;;;8.70;99.90;;;;;;5063625;28;19921;-72
2021/12/16 16:41:13;;;;;;;63.13;21.73;;;8.70;99.90;;;;;;5047911;28;20535;-72
2021/12/16 16:43:53;;;;;;;52.15;21.05;;;8.70;99.90;;;;;;5032497;23;20054;-72
2021/12/16 16:46:33;;;;;;;68.03;20.98;;;8.70;99.90;;;;;;5033880;28;20050;-72
2021/12/16 16:49:06;;;;;;;54.83;19.88;;;8.70;99.90;;;;;;5034283;28;20413;-73